Aredale, Iowa
Current Conditions -  °F | °C
As of 9:35 PM on Sunday 23 Nov 2014 (Local Time) from KCCY Reporting Station
Overcast Overcast  
Wind Chill: 26°   Ceiling: 800
Heat Index: 37°   Visibility: 8mi
Dew Point: 37°   Wind: 23mph
Humidity: 100%   Direction: 320°NW
Pressure: 29.29"   Gusts: 33mph
Location:  42.83°N, 93.01°W
Report Text: KCCY 240335Z AUTO 32020G29KT 8SM OVC008 03/03 A2929 RMK AO2
Loading
Personal Weather Stations






























Interactive Weather Map New forecast layout! Learn more

10-Day Weather Forecast

Advertisements
Track Severe Weather on mobile